createdAt,value
2023-03-08T00:01:54.800Z,5.53
2023-03-08T00:04:21.309Z,6.13
2023-03-08T00:06:47.731Z,6.03
2023-03-08T00:09:14.114Z,5.20
2023-03-08T00:11:40.438Z,7.03
2023-03-08T00:14:06.920Z,4.68
2023-03-08T00:16:33.251Z,5.45
2023-03-08T00:18:59.716Z,3.90
2023-03-08T00:21:26.112Z,4.88
2023-03-08T00:23:56.640Z,5.13
2023-03-08T00:26:23.161Z,4.57
2023-03-08T00:28:49.885Z,4.97
2023-03-08T00:31:16.310Z,6.40
2023-03-08T00:33:42.697Z,5.05
2023-03-08T00:36:14.975Z,5.40
2023-03-08T00:38:41.994Z,6.15
2023-03-08T00:41:08.771Z,7.65
2023-03-08T00:43:35.587Z,5.85
2023-03-08T00:46:02.001Z,8.05
2023-03-08T00:48:28.541Z,8.27
2023-03-08T00:50:54.903Z,6.15
2023-03-08T00:53:21.243Z,7.38
2023-03-08T00:55:53.184Z,7.47
2023-03-08T00:58:20.725Z,7.32
2023-03-08T01:00:48.342Z,6.57
2023-03-08T01:03:15.549Z,7.75
2023-03-08T01:05:44.181Z,7.03
2023-03-08T01:08:12.108Z,7.25
2023-03-08T01:10:38.714Z,8.70
2023-03-08T01:13:06.591Z,8.40
2023-03-08T01:15:37.330Z,12.52
2023-03-08T01:18:04.636Z,10.40
2023-03-08T01:20:31.206Z,10.40
2023-03-08T01:22:57.558Z,12.55
2023-03-08T01:25:24.041Z,9.63
2023-03-08T01:27:50.688Z,13.88
2023-03-08T01:30:17.277Z,12.23
2023-03-08T01:32:43.885Z,10.70
2023-03-08T01:35:10.249Z,12.98
2023-03-08T01:37:36.632Z,14.13
2023-03-08T01:40:04.823Z,11.27
2023-03-08T01:42:31.634Z,13.85
2023-03-08T01:45:04.624Z,11.95
2023-03-08T01:47:33.247Z,14.43
2023-03-08T01:50:08.070Z,16.60
2023-03-08T01:52:46.661Z,13.27
2023-03-08T01:55:15.802Z,12.85
2023-03-08T01:57:46.065Z,13.93
2023-03-08T02:00:19.557Z,15.10
2023-03-08T02:02:59.600Z,13.18
2023-03-08T02:05:27.473Z,15.63
2023-03-08T02:07:53.816Z,13.45
2023-03-08T02:10:20.865Z,14.18
2023-03-08T02:12:47.880Z,14.85
2023-03-08T02:15:17.259Z,17.35
2023-03-08T02:17:44.562Z,14.38
2023-03-08T02:20:32.982Z,15.80
2023-03-08T02:23:18.254Z,18.40
2023-03-08T02:25:54.636Z,16.03
2023-03-08T02:28:22.790Z,16.13
2023-03-08T02:30:49.795Z,18.02
2023-03-08T02:33:16.923Z,16.83
2023-03-08T02:35:44.143Z,17.23
2023-03-08T02:38:12.429Z,14.93
2023-03-08T02:40:39.854Z,17.73
2023-03-08T02:43:06.953Z,17.58
2023-03-08T02:45:34.065Z,18.25
2023-03-08T02:48:01.366Z,15.98
2023-03-08T02:50:27.865Z,17.05
2023-03-08T02:52:54.396Z,18.25
2023-03-08T02:55:20.818Z,17.92
2023-03-08T02:57:47.180Z,16.52
2023-03-08T03:00:14.111Z,17.45
2023-03-08T03:02:40.468Z,18.95
2023-03-08T03:05:11.022Z,17.02
2023-03-08T03:07:39.616Z,15.48
2023-03-08T03:10:08.150Z,17.60
2023-03-08T03:12:34.488Z,18.63
2023-03-08T03:15:02.321Z,15.18
2023-03-08T03:17:29.213Z,16.08
2023-03-08T03:19:55.571Z,13.82
2023-03-08T03:22:21.895Z,19.52
2023-03-08T03:24:50.924Z,15.77
2023-03-08T03:27:18.287Z,15.88
2023-03-08T03:29:45.023Z,16.55
2023-03-08T03:32:11.963Z,15.18
2023-03-08T03:34:38.620Z,15.98
2023-03-08T03:37:05.000Z,17.88
2023-03-08T03:39:34.570Z,17.55
2023-03-08T03:42:01.295Z,17.52
2023-03-08T03:44:30.796Z,15.77
2023-03-08T03:46:57.354Z,15.63
2023-03-08T03:49:23.748Z,16.52
2023-03-08T03:51:50.080Z,17.70
2023-03-08T03:54:16.473Z,17.50
2023-03-08T03:56:42.826Z,16.13
2023-03-08T03:59:09.172Z,15.80
2023-03-08T04:01:35.522Z,16.60
2023-03-08T04:04:01.960Z,18.92
2023-03-08T04:06:30.323Z,15.18
2023-03-08T04:08:59.703Z,16.83
2023-03-08T04:11:32.024Z,17.10
2023-03-08T04:13:58.513Z,17.45
2023-03-08T04:16:29.328Z,16.83
2023-03-08T04:18:59.108Z,15.18
2023-03-08T04:21:25.906Z,18.25
2023-03-08T04:23:52.958Z,17.38
2023-03-08T04:26:20.727Z,16.50
2023-03-08T04:28:47.176Z,18.63
2023-03-08T04:31:28.590Z,16.23
2023-03-08T04:33:55.793Z,17.63
2023-03-08T04:36:22.874Z,17.10
2023-03-08T04:38:49.628Z,16.73
2023-03-08T04:41:16.866Z,17.65
2023-03-08T04:43:50.287Z,19.00
2023-03-08T04:46:18.811Z,17.20
2023-03-08T04:48:45.194Z,17.80
2023-03-08T04:51:14.159Z,19.38
2023-03-08T04:53:41.545Z,18.55
2023-03-08T04:56:08.811Z,22.08
2023-03-08T04:58:36.267Z,17.80
2023-03-08T05:01:28.854Z,17.23
2023-03-08T05:03:55.584Z,19.73
2023-03-08T05:06:24.478Z,20.38
2023-03-08T05:08:50.897Z,19.85
2023-03-08T05:11:26.062Z,20.35
2023-03-08T05:13:57.916Z,23.88
2023-03-08T05:16:25.316Z,21.70
2023-03-08T05:18:51.746Z,19.42
2023-03-08T05:21:20.527Z,19.85
2023-03-08T05:23:47.219Z,18.35
2023-03-08T05:26:16.642Z,19.35
2023-03-08T05:28:43.134Z,19.10
2023-03-08T05:31:18.211Z,20.67
2023-03-08T05:33:46.549Z,17.63
2023-03-08T05:36:14.182Z,19.52
2023-03-08T05:38:40.946Z,19.45
2023-03-08T05:41:11.070Z,16.38
2023-03-08T05:43:37.428Z,19.05
2023-03-08T05:46:09.200Z,19.98
2023-03-08T05:48:36.829Z,18.80
2023-03-08T05:51:12.637Z,18.92
2023-03-08T05:53:39.720Z,17.98
2023-03-08T05:56:15.043Z,22.60
2023-03-08T05:58:43.562Z,22.45
2023-03-08T06:01:11.521Z,18.30
2023-03-08T06:03:38.028Z,21.30
2023-03-08T06:06:04.776Z,19.92
2023-03-08T06:08:31.191Z,19.98
2023-03-08T06:10:57.531Z,18.70
2023-03-08T06:13:23.951Z,20.83
2023-03-08T06:15:55.074Z,18.10
2023-03-08T06:18:21.392Z,19.67
2023-03-08T06:21:01.244Z,20.55
2023-03-08T06:23:29.358Z,20.05
2023-03-08T06:25:55.831Z,18.98
2023-03-08T06:28:23.058Z,18.25
2023-03-08T06:30:49.935Z,19.15
2023-03-08T06:33:17.824Z,20.48
2023-03-08T06:35:44.944Z,21.23
2023-03-08T06:38:11.370Z,22.35
2023-03-08T06:40:37.671Z,26.38
2023-03-08T06:43:04.068Z,23.45
2023-03-08T06:45:30.424Z,23.63
2023-03-08T06:47:56.757Z,23.60
2023-03-08T06:50:23.102Z,26.88
2023-03-08T06:52:49.555Z,22.20
2023-03-08T06:55:15.996Z,24.10
2023-03-08T06:57:42.347Z,23.35
2023-03-08T07:00:09.808Z,19.77
2023-03-08T07:02:36.193Z,21.70
2023-03-08T07:05:02.529Z,20.35
2023-03-08T07:07:28.900Z,20.48
2023-03-08T07:09:55.321Z,20.98
2023-03-08T07:12:21.725Z,18.30
2023-03-08T07:14:48.047Z,22.17
2023-03-08T07:17:14.448Z,20.33
2023-03-08T07:19:40.794Z,21.58
2023-03-08T07:22:07.109Z,20.92
2023-03-08T07:24:33.472Z,19.98
2023-03-08T07:26:59.793Z,21.50
2023-03-08T07:29:26.184Z,19.13
2023-03-08T07:31:52.553Z,19.85
2023-03-08T07:34:18.916Z,21.13
2023-03-08T07:36:45.254Z,25.98
2023-03-08T07:39:11.573Z,20.73
2023-03-08T07:41:38.011Z,24.55
2023-03-08T07:44:04.576Z,24.35
2023-03-08T07:46:31.053Z,22.30
2023-03-08T07:48:57.488Z,24.88
2023-03-08T07:51:24.021Z,23.40
2023-03-08T07:53:51.878Z,22.58
2023-03-08T07:56:18.606Z,22.95
2023-03-08T07:58:46.101Z,25.52
2023-03-08T08:01:14.071Z,29.15
2023-03-08T08:03:40.986Z,27.58
2023-03-08T08:06:08.229Z,27.05
2023-03-08T08:08:34.623Z,30.38
2023-03-08T08:11:01.411Z,31.83
2023-03-08T08:13:27.848Z,33.58
2023-03-08T08:15:59.785Z,34.10
2023-03-08T08:18:26.613Z,38.10
2023-03-08T08:21:03.529Z,38.83
2023-03-08T08:23:30.567Z,36.83
2023-03-08T08:25:57.601Z,39.15
2023-03-08T08:28:25.627Z,42.53
2023-03-08T08:30:59.861Z,40.97
2023-03-08T08:33:28.403Z,46.53
2023-03-08T08:35:54.980Z,45.72
2023-03-08T08:38:21.682Z,43.50
2023-03-08T08:40:48.219Z,47.60
2023-03-08T08:43:15.013Z,49.17
2023-03-08T08:45:46.243Z,51.42
2023-03-08T08:48:13.583Z,49.55
2023-03-08T08:50:41.423Z,52.63
2023-03-08T08:53:10.009Z,48.05
2023-03-08T08:55:36.666Z,50.70
2023-03-08T08:58:04.388Z,48.58
2023-03-08T09:00:33.559Z,51.08
2023-03-08T09:03:05.039Z,51.85
2023-03-08T09:05:32.604Z,46.97
2023-03-08T09:08:00.953Z,47.28
2023-03-08T09:10:29.915Z,46.40
2023-03-08T09:12:59.056Z,46.95
2023-03-08T09:15:26.174Z,45.83
2023-03-08T09:17:52.586Z,46.35
2023-03-08T09:20:20.512Z,49.08
2023-03-08T09:22:47.859Z,48.72
2023-03-08T09:25:14.396Z,47.55
2023-03-08T09:27:42.552Z,43.08
2023-03-08T09:30:10.846Z,44.22
2023-03-08T09:32:37.278Z,38.53
2023-03-08T09:35:05.149Z,39.22
2023-03-08T09:37:31.771Z,41.13
2023-03-08T09:39:58.247Z,42.00
2023-03-08T09:42:29.494Z,39.85
2023-03-08T09:45:28.329Z,38.95
2023-03-08T09:48:07.671Z,37.13
2023-03-08T09:50:49.702Z,37.00
2023-03-08T09:53:32.290Z,37.10
2023-03-08T09:56:04.849Z,34.72
2023-03-08T09:58:40.864Z,33.28
2023-03-08T10:01:38.053Z,35.15
2023-03-08T10:04:12.017Z,33.75
2023-03-08T10:06:56.756Z,32.78
2023-03-08T10:09:29.169Z,36.90
2023-03-08T10:12:13.862Z,33.92
2023-03-08T10:14:45.065Z,33.95
2023-03-08T10:17:24.918Z,38.47
2023-03-08T10:20:08.102Z,34.38
2023-03-08T10:22:39.066Z,36.47
2023-03-08T10:25:26.459Z,38.75
2023-03-08T10:27:55.563Z,39.35
2023-03-08T10:30:27.086Z,37.38
2023-03-08T10:32:59.816Z,35.55
2023-03-08T10:35:37.610Z,31.80
2023-03-08T10:38:05.780Z,34.22
2023-03-08T10:40:32.156Z,29.40
2023-03-08T10:43:03.553Z,28.92
2023-03-08T10:45:30.076Z,26.08
2023-03-08T10:48:02.227Z,31.45
2023-03-08T10:50:31.373Z,28.80
2023-03-08T10:53:29.339Z,26.60
2023-03-08T10:55:58.612Z,26.10
2023-03-08T10:58:30.529Z,22.58
2023-03-08T11:00:59.794Z,23.33
2023-03-08T11:03:27.693Z,23.83
2023-03-08T11:06:09.186Z,23.48
2023-03-08T11:08:40.132Z,22.30
2023-03-08T11:11:12.658Z,21.58
2023-03-08T11:13:44.977Z,22.27
2023-03-08T11:16:49.167Z,21.58
2023-03-08T11:19:26.781Z,21.80
2023-03-08T11:22:20.888Z,18.55
2023-03-08T11:24:56.023Z,24.83
2023-03-08T11:27:25.610Z,20.15
2023-03-08T11:30:22.833Z,23.80
2023-03-08T11:32:52.362Z,17.38
2023-03-08T11:35:31.113Z,17.98
2023-03-08T11:38:14.527Z,15.95
2023-03-08T11:41:05.867Z,13.88
2023-03-08T11:44:02.403Z,15.45
2023-03-08T11:46:53.749Z,16.30
2023-03-08T11:49:22.959Z,14.52
2023-03-08T11:52:08.139Z,17.38
2023-03-08T11:55:05.115Z,22.48
2023-03-08T11:57:37.399Z,15.65
2023-03-08T12:00:23.038Z,14.32
2023-03-08T12:02:50.463Z,13.55
2023-03-08T12:05:30.396Z,12.32
2023-03-08T12:08:08.930Z,12.60
2023-03-08T12:11:03.263Z,13.90
2023-03-08T12:13:36.476Z,13.85
2023-03-08T12:16:14.773Z,16.42
2023-03-08T12:18:48.592Z,13.77
2023-03-08T12:21:28.510Z,13.02
2023-03-08T12:24:13.703Z,13.05
2023-03-08T12:26:48.847Z,11.27
2023-03-08T12:30:19.686Z,9.35
2023-03-08T12:32:47.592Z,11.23
2023-03-08T12:35:23.001Z,11.95
2023-03-08T12:38:19.911Z,11.23
2023-03-08T12:40:52.158Z,13.27
2023-03-08T12:43:21.338Z,7.13
2023-03-08T12:46:01.603Z,8.82
2023-03-08T12:48:44.214Z,6.78
2023-03-08T12:51:14.148Z,6.95
2023-03-08T12:53:49.586Z,7.28
2023-03-08T12:56:34.764Z,8.68
2023-03-08T12:59:11.581Z,8.02
2023-03-08T13:01:46.647Z,6.10
2023-03-08T13:04:41.905Z,7.22
2023-03-08T13:07:37.837Z,7.13
2023-03-08T13:10:27.699Z,7.65
2023-03-08T13:13:09.505Z,6.80
2023-03-08T13:15:37.856Z,6.68
2023-03-08T13:18:13.971Z,9.63
2023-03-08T13:20:41.826Z,8.30
2023-03-08T13:23:23.423Z,5.68
2023-03-08T13:26:06.381Z,5.32
2023-03-08T13:28:47.201Z,5.32
2023-03-08T13:31:23.151Z,4.45
2023-03-08T13:33:53.915Z,5.18
2023-03-08T13:36:31.030Z,8.27
2023-03-08T13:38:59.164Z,6.22
2023-03-08T13:41:39.637Z,8.00
2023-03-08T13:44:13.820Z,7.60
2023-03-08T13:46:42.904Z,5.93
2023-03-08T13:49:35.294Z,7.03
2023-03-08T13:52:04.557Z,5.22
2023-03-08T13:54:34.938Z,6.95
2023-03-08T13:57:07.505Z,4.90
2023-03-08T13:59:35.682Z,5.95
2023-03-08T14:02:02.077Z,4.40
2023-03-08T14:04:30.242Z,5.28
2023-03-08T14:06:59.455Z,7.03
2023-03-08T14:09:26.811Z,4.95
2023-03-08T14:12:05.360Z,4.97
2023-03-08T14:14:38.949Z,4.78
2023-03-08T14:17:05.526Z,5.82
2023-03-08T14:19:41.915Z,7.68
2023-03-08T14:22:28.682Z,4.63
2023-03-08T14:25:04.778Z,4.55
2023-03-08T14:27:41.421Z,4.10
2023-03-08T14:30:34.308Z,4.40
2023-03-08T14:33:18.367Z,4.28
2023-03-08T14:35:53.495Z,4.57
2023-03-08T14:38:29.112Z,4.95
2023-03-08T14:40:56.090Z,5.13
2023-03-08T14:43:24.769Z,6.57
2023-03-08T14:45:57.145Z,5.63
2023-03-08T14:48:37.950Z,5.32
2023-03-08T14:51:26.269Z,4.80
2023-03-08T14:53:58.911Z,6.10
2023-03-08T14:56:25.238Z,6.40
2023-03-08T14:58:53.700Z,5.78
2023-03-08T15:01:25.137Z,6.80
2023-03-08T15:03:51.498Z,4.90
2023-03-08T15:06:21.855Z,5.72
2023-03-08T15:08:49.027Z,4.85
2023-03-08T15:11:15.622Z,7.88
2023-03-08T15:13:42.251Z,7.25
2023-03-08T15:16:11.597Z,5.72
2023-03-08T15:18:39.653Z,6.65
2023-03-08T15:21:06.569Z,6.25
2023-03-08T15:23:36.509Z,7.43
2023-03-08T15:26:06.089Z,6.00
2023-03-08T15:28:41.581Z,6.22
2023-03-08T15:31:08.826Z,6.07
2023-03-08T15:33:35.163Z,5.95
2023-03-08T15:36:01.570Z,5.88
2023-03-08T15:38:28.668Z,5.53
2023-03-08T15:40:55.043Z,4.80
2023-03-08T15:43:21.409Z,4.15
2023-03-08T15:45:47.959Z,5.65
2023-03-08T15:48:17.291Z,5.25
2023-03-08T15:50:44.758Z,4.60
2023-03-08T15:53:12.332Z,5.82
2023-03-08T15:55:39.310Z,5.57
2023-03-08T15:58:08.294Z,5.65
2023-03-08T16:00:35.184Z,6.30
2023-03-08T16:03:01.894Z,6.13
2023-03-08T16:05:30.016Z,7.85
2023-03-08T16:07:59.349Z,6.88
2023-03-08T16:10:27.590Z,6.00
2023-03-08T16:12:54.176Z,10.05
2023-03-08T16:15:21.380Z,6.28
2023-03-08T16:17:47.824Z,7.05
2023-03-08T16:20:15.295Z,6.32
2023-03-08T16:22:41.826Z,7.25
2023-03-08T16:25:09.533Z,8.82
2023-03-08T16:27:38.098Z,5.55
2023-03-08T16:30:05.212Z,6.05
2023-03-08T16:32:31.642Z,7.85
2023-03-08T16:34:59.193Z,6.18
2023-03-08T16:37:26.677Z,5.22
2023-03-08T16:39:54.467Z,6.03
2023-03-08T16:42:22.104Z,6.72
2023-03-08T16:44:53.664Z,5.20
2023-03-08T16:47:21.635Z,5.65
2023-03-08T16:49:48.125Z,7.13
2023-03-08T16:52:16.098Z,5.10
2023-03-08T16:54:42.881Z,6.93
2023-03-08T16:57:19.109Z,6.68
2023-03-08T16:59:47.040Z,5.85
2023-03-08T17:02:19.421Z,8.18
2023-03-08T17:04:47.607Z,7.13
2023-03-08T17:07:14.625Z,7.70
2023-03-08T17:09:41.090Z,8.27
2023-03-08T17:12:09.353Z,7.05
2023-03-08T17:14:36.995Z,8.20
2023-03-08T17:17:04.723Z,8.48
2023-03-08T17:19:31.211Z,8.07
2023-03-08T17:21:57.876Z,8.38
2023-03-08T17:24:28.109Z,9.38
2023-03-08T17:26:55.134Z,9.10
2023-03-08T17:29:21.720Z,8.07
2023-03-08T17:31:48.607Z,9.23
2023-03-08T17:34:15.973Z,10.23
2023-03-08T17:36:42.945Z,9.90
2023-03-08T17:39:09.783Z,9.40
2023-03-08T17:41:38.416Z,9.77
2023-03-08T17:44:04.789Z,8.82
2023-03-08T17:46:31.215Z,10.10
2023-03-08T17:48:57.581Z,9.45
2023-03-08T17:51:26.527Z,12.38
2023-03-08T17:53:54.145Z,11.13
2023-03-08T17:56:24.924Z,9.68
2023-03-08T17:58:52.023Z,13.00
2023-03-08T18:01:24.298Z,8.57
2023-03-08T18:03:52.155Z,8.93
2023-03-08T18:06:24.907Z,9.35
2023-03-08T18:08:51.736Z,9.73
2023-03-08T18:11:18.077Z,9.27
2023-03-08T18:13:44.551Z,13.02
2023-03-08T18:16:10.971Z,14.38
2023-03-08T18:18:37.427Z,13.02
2023-03-08T18:21:13.399Z,12.43
2023-03-08T18:23:42.607Z,10.35
2023-03-08T18:26:10.387Z,10.73
2023-03-08T18:28:37.044Z,11.65
2023-03-08T18:31:12.449Z,11.57
2023-03-08T18:33:39.248Z,13.93
2023-03-08T18:36:06.296Z,14.90
2023-03-08T18:38:33.116Z,12.48
2023-03-08T18:40:59.622Z,13.52
2023-03-08T18:43:26.099Z,15.07
2023-03-08T18:45:54.208Z,14.02
2023-03-08T18:48:22.053Z,13.52
2023-03-08T18:50:48.749Z,16.20
2023-03-08T18:53:15.676Z,14.20
2023-03-08T18:55:59.923Z,16.17
2023-03-08T18:58:26.714Z,12.82
2023-03-08T19:00:54.657Z,11.90
2023-03-08T19:03:21.100Z,17.67
2023-03-08T19:05:47.419Z,17.98
2023-03-08T19:08:13.794Z,18.05
2023-03-08T19:10:40.237Z,16.60
2023-03-08T19:13:06.673Z,15.38
2023-03-08T19:15:39.952Z,13.68
2023-03-08T19:18:07.148Z,17.15
2023-03-08T19:20:37.949Z,15.52
2023-03-08T19:23:04.314Z,18.85
2023-03-08T19:25:34.920Z,15.25
2023-03-08T19:28:02.369Z,15.73
2023-03-08T19:30:28.955Z,16.27
2023-03-08T19:32:56.486Z,15.23
2023-03-08T19:35:23.373Z,14.70
2023-03-08T19:38:01.977Z,16.70
2023-03-08T19:40:28.617Z,13.32
2023-03-08T19:42:55.119Z,16.60
2023-03-08T19:45:21.657Z,14.75
2023-03-08T19:47:48.066Z,14.95
2023-03-08T19:50:15.894Z,14.25
2023-03-08T19:52:42.381Z,16.42
2023-03-08T19:55:09.289Z,15.82
2023-03-08T19:57:36.767Z,17.85
2023-03-08T20:00:06.389Z,16.65
2023-03-08T20:02:33.169Z,16.38
2023-03-08T20:05:00.375Z,16.25
2023-03-08T20:07:27.045Z,15.02
2023-03-08T20:09:54.528Z,15.68
2023-03-08T20:12:21.257Z,16.05
2023-03-08T20:14:48.055Z,19.15
2023-03-08T20:17:15.065Z,15.20
2023-03-08T20:19:42.067Z,16.20
2023-03-08T20:22:08.894Z,16.00
2023-03-08T20:24:35.651Z,17.52
2023-03-08T20:27:04.125Z,17.20
2023-03-08T20:29:30.942Z,16.80
2023-03-08T20:31:59.182Z,16.80
2023-03-08T20:34:27.107Z,18.75
2023-03-08T20:36:53.637Z,19.08
2023-03-08T20:39:21.499Z,20.02
2023-03-08T20:41:48.016Z,21.48
2023-03-08T20:44:14.506Z,20.65
2023-03-08T20:46:41.023Z,18.80
2023-03-08T20:49:07.456Z,20.33
2023-03-08T20:51:33.985Z,19.90
2023-03-08T20:54:00.530Z,18.65
2023-03-08T20:56:27.298Z,20.33
2023-03-08T20:58:57.102Z,19.88
2023-03-08T21:01:26.896Z,22.42
2023-03-08T21:03:53.338Z,20.33
2023-03-08T21:06:31.841Z,22.27
2023-03-08T21:08:59.354Z,19.88
2023-03-08T21:11:25.844Z,21.60
2023-03-08T21:13:53.030Z,20.70
2023-03-08T21:16:22.185Z,23.65
2023-03-08T21:18:50.881Z,22.35
2023-03-08T21:21:24.592Z,20.80
2023-03-08T21:23:52.730Z,23.80
2023-03-08T21:26:20.741Z,22.42
2023-03-08T21:28:47.661Z,20.63
2023-03-08T21:31:14.176Z,24.13
2023-03-08T21:33:40.649Z,23.17
2023-03-08T21:36:07.360Z,23.30
2023-03-08T21:38:33.810Z,22.25
2023-03-08T21:41:00.456Z,22.02
2023-03-08T21:43:26.917Z,23.67
2023-03-08T21:45:53.301Z,21.42
2023-03-08T21:48:19.828Z,25.50
2023-03-08T21:50:46.244Z,23.77
2023-03-08T21:53:12.719Z,24.55
2023-03-08T21:55:40.456Z,26.85
2023-03-08T21:58:07.749Z,25.38
2023-03-08T22:00:34.501Z,26.45
2023-03-08T22:03:00.971Z,24.27
2023-03-08T22:05:27.358Z,29.30
2023-03-08T22:07:53.709Z,25.92
2023-03-08T22:10:20.254Z,26.00
2023-03-08T22:12:47.378Z,28.88
2023-03-08T22:15:15.588Z,25.55
2023-03-08T22:17:42.312Z,27.23
2023-03-08T22:20:10.693Z,27.65
2023-03-08T22:22:38.099Z,27.65
2023-03-08T22:25:05.870Z,27.30
2023-03-08T22:27:32.350Z,28.40
2023-03-08T22:29:59.100Z,28.15
2023-03-08T22:32:26.683Z,25.55
2023-03-08T22:34:53.169Z,26.42
2023-03-08T22:37:19.604Z,27.45
2023-03-08T22:39:46.034Z,26.08
2023-03-08T22:42:12.529Z,26.35
2023-03-08T22:44:39.001Z,28.13
2023-03-08T22:47:05.600Z,30.25
2023-03-08T22:49:31.990Z,29.38
2023-03-08T22:51:58.419Z,29.90
2023-03-08T22:54:24.825Z,29.63
2023-03-08T22:56:51.500Z,28.10
2023-03-08T22:59:17.942Z,27.38
2023-03-08T23:01:44.542Z,29.00
2023-03-08T23:04:12.384Z,29.73
2023-03-08T23:06:39.098Z,29.52
2023-03-08T23:09:07.728Z,28.85
2023-03-08T23:11:35.157Z,30.23
2023-03-08T23:14:01.948Z,30.50
2023-03-08T23:16:28.430Z,29.27
2023-03-08T23:18:55.129Z,30.23
2023-03-08T23:21:23.269Z,28.10
2023-03-08T23:23:49.718Z,29.77
2023-03-08T23:26:19.030Z,31.83
2023-03-08T23:28:45.408Z,31.45
2023-03-08T23:31:17.608Z,33.10
2023-03-08T23:33:44.897Z,32.00
2023-03-08T23:36:13.373Z,31.50
2023-03-08T23:38:39.734Z,31.98
2023-03-08T23:41:08.346Z,33.92
2023-03-08T23:43:35.941Z,31.90
2023-03-08T23:46:14.483Z,30.88
2023-03-08T23:48:41.495Z,31.95
2023-03-08T23:51:10.550Z,34.28
2023-03-08T23:53:37.617Z,32.45
2023-03-08T23:56:04.672Z,31.27
2023-03-08T23:58:31.396Z,33.42
